createdAt,value
2019-06-27T00:05:09.020Z,23.50
2019-06-27T00:11:05.523Z,23.70
2019-06-27T00:16:16.737Z,23.80
2019-06-27T00:22:00.577Z,23.50
2019-06-27T00:27:57.584Z,23.30
2019-06-27T00:39:18.341Z,23.60
2019-06-27T00:45:04.133Z,23.50
2019-06-27T00:50:50.223Z,23.30
2019-06-27T00:56:04.548Z,23.30
2019-06-27T01:01:00.582Z,23.20
2019-06-27T01:06:13.205Z,23.20
2019-06-27T01:11:57.461Z,23.20
2019-06-27T01:17:18.735Z,23.30
2019-06-27T01:28:48.809Z,23.10
2019-06-27T01:33:43.481Z,22.80
2019-06-27T01:39:37.300Z,22.60
2019-06-27T01:44:38.504Z,22.70
2019-06-27T01:50:32.280Z,23.00
2019-06-27T02:02:47.971Z,22.40
2019-06-27T02:08:13.297Z,22.50
2019-06-27T02:13:42.543Z,22.50
2019-06-27T02:19:38.009Z,22.40
2019-06-27T02:25:11.294Z,22.40
2019-06-27T02:32:03.247Z,22.60
2019-06-27T02:37:21.175Z,22.60
2019-06-27T02:43:34.131Z,22.50
2019-06-27T02:48:49.131Z,22.40
2019-06-27T02:53:40.673Z,22.30
2019-06-27T02:58:59.480Z,22.10
2019-06-27T03:03:54.219Z,22.00
2019-06-27T03:08:50.221Z,22.10
2019-06-27T03:13:46.170Z,22.10
2019-06-27T03:18:42.326Z,21.80
2019-06-27T03:23:38.415Z,21.80
2019-06-27T03:28:51.048Z,22.00
2019-06-27T03:34:55.919Z,22.00
2019-06-27T03:45:23.338Z,21.90
2019-06-27T03:50:39.655Z,21.70
2019-06-27T03:55:47.182Z,21.60
2019-06-27T04:00:42.775Z,21.60
2019-06-27T04:06:08.005Z,21.60
2019-06-27T04:11:08.655Z,21.60
2019-06-27T04:16:32.301Z,21.60
2019-06-27T04:21:50.908Z,21.90
2019-06-27T04:26:54.515Z,22.00
2019-06-27T04:31:51.923Z,22.00
2019-06-27T04:37:07.932Z,21.80
2019-06-27T04:42:06.976Z,21.90
2019-06-27T04:47:14.437Z,22.10
2019-06-27T04:52:13.642Z,22.20
2019-06-27T04:57:23.102Z,22.50
2019-06-27T05:02:30.590Z,22.80
2019-06-27T05:08:20.314Z,23.10
2019-06-27T05:27:11.258Z,23.90
2019-06-27T05:58:04.411Z,24.20
2019-06-27T06:39:39.888Z,24.60
2019-06-27T06:44:35.679Z,24.70
2019-06-27T06:49:31.393Z,24.80
2019-06-27T06:54:27.134Z,24.90
2019-06-27T06:59:23.069Z,25.10
2019-06-27T07:04:18.895Z,25.20
2019-06-27T07:09:14.631Z,25.20
2019-06-27T07:14:10.462Z,25.20
2019-06-27T07:19:06.279Z,25.40
2019-06-27T07:24:02.017Z,25.80
2019-06-27T07:28:57.925Z,26.30
2019-06-27T07:33:53.706Z,26.80
2019-06-27T07:40:01.285Z,27.00
2019-06-27T07:45:59.729Z,27.00
2019-06-27T07:57:03.144Z,27.20
2019-06-27T08:03:01.670Z,27.40
2019-06-27T08:15:01.600Z,28.00
2019-06-27T08:20:59.735Z,28.20
2019-06-27T08:27:01.100Z,28.50
2019-06-27T08:33:00.345Z,28.70
2019-06-27T08:45:03.362Z,29.40
2019-06-27T09:14:59.415Z,30.20
2019-06-27T09:26:02.767Z,30.90
2019-06-27T09:36:53.661Z,31.00
2019-06-27T09:41:49.400Z,31.20
2019-06-27T09:46:45.298Z,31.40
2019-06-27T09:51:43.401Z,31.40
2019-06-27T09:56:39.192Z,31.60
2019-06-27T10:01:34.995Z,31.50
2019-06-27T10:06:31.952Z,31.70
2019-06-27T10:11:27.639Z,31.70
2019-06-27T10:16:23.432Z,31.90
2019-06-27T10:21:19.266Z,32.10
2019-06-27T10:26:15.035Z,32.40
2019-06-27T10:31:10.837Z,32.40
2019-06-27T10:36:06.657Z,32.60
2019-06-27T10:41:02.558Z,32.60
2019-06-27T10:45:58.314Z,32.90
2019-06-27T10:50:54.863Z,33.00
2019-06-27T10:55:50.777Z,33.00
2019-06-27T11:00:46.619Z,33.00
2019-06-27T11:06:14.779Z,33.00
2019-06-27T11:24:31.954Z,33.20
2019-06-27T11:29:43.945Z,33.30
2019-06-27T11:34:59.742Z,33.30
2019-06-27T11:40:06.122Z,33.30
2019-06-27T11:45:05.120Z,33.50
2019-06-27T12:17:16.241Z,33.70
2019-06-27T13:00:01.259Z,33.70
2019-06-27T13:12:02.217Z,33.50
2019-06-27T13:17:10.336Z,33.40
2019-06-27T13:47:04.668Z,33.00
2019-06-27T13:58:03.665Z,32.70
2019-06-27T14:04:19.462Z,32.60
2019-06-27T14:10:06.616Z,32.70
2019-06-27T14:15:59.467Z,32.80
2019-06-27T14:21:12.520Z,32.80
2019-06-27T14:26:17.226Z,32.90
2019-06-27T14:31:18.201Z,32.90
2019-06-27T14:36:21.430Z,32.90
2019-06-27T14:47:05.600Z,32.80
2019-06-27T14:52:57.535Z,32.90
2019-06-27T14:58:36.330Z,32.90
2019-06-27T15:04:06.302Z,33.00
2019-06-27T15:09:31.350Z,33.00
2019-06-27T15:14:45.859Z,33.00
2019-06-27T15:19:59.259Z,33.00
2019-06-27T15:25:21.835Z,32.90
2019-06-27T15:30:26.381Z,32.90
2019-06-27T15:36:39.809Z,33.00
2019-06-27T15:41:40.974Z,33.00
2019-06-27T15:46:45.942Z,33.00
2019-06-27T15:51:50.105Z,33.00
2019-06-27T15:56:53.298Z,33.00
2019-06-27T16:15:01.562Z,32.50
2019-06-27T19:01:45.559Z,30.30
2019-06-27T19:06:41.425Z,30.30
2019-06-27T19:11:39.708Z,30.20
2019-06-27T19:16:35.486Z,30.10
2019-06-27T19:21:50.186Z,29.90
2019-06-27T19:26:46.942Z,29.70
2019-06-27T19:31:42.778Z,29.60
2019-06-27T19:36:38.618Z,29.60
2019-06-27T19:41:34.492Z,29.60
2019-06-27T19:46:30.223Z,29.50
2019-06-27T19:51:26.103Z,29.40
2019-06-27T19:56:21.983Z,29.30
2019-06-27T20:01:17.711Z,29.40
2019-06-27T20:06:13.647Z,29.40
2019-06-27T20:11:09.427Z,29.50
2019-06-27T20:22:39.079Z,29.30
2019-06-27T20:33:40.732Z,29.20
2019-06-27T20:38:38.358Z,29.10
2019-06-27T20:43:49.389Z,28.90
2019-06-27T20:50:10.167Z,28.90
2019-06-27T20:55:29.826Z,28.80
2019-06-27T21:01:47.544Z,28.70
2019-06-27T21:20:25.219Z,28.60
2019-06-27T21:25:21.531Z,28.40
2019-06-27T21:30:18.093Z,28.30
2019-06-27T21:35:14.377Z,28.20
2019-06-27T21:40:11.619Z,28.10
2019-06-27T21:45:08.469Z,28.10
2019-06-27T21:50:04.784Z,28.10
2019-06-27T21:55:00.666Z,27.90
2019-06-27T22:00:01.779Z,27.80
2019-06-27T22:04:57.793Z,27.60
2019-06-27T22:09:53.721Z,27.40
2019-06-27T22:14:50.371Z,27.20
2019-06-27T22:19:47.117Z,27.10
2019-06-27T22:24:43.045Z,27.00
2019-06-27T22:29:38.815Z,26.90
2019-06-27T22:34:35.654Z,26.80
2019-06-27T22:39:49.745Z,27.00
2019-06-27T22:45:03.239Z,27.00
2019-06-27T22:49:59.698Z,26.90
2019-06-27T22:54:57.352Z,27.00
2019-06-27T22:59:53.069Z,27.10
2019-06-27T23:04:48.880Z,27.10
2019-06-27T23:09:56.410Z,27.00
2019-06-27T23:14:42.053Z,27.00
2019-06-27T23:19:37.859Z,26.90
2019-06-27T23:24:33.818Z,26.70
2019-06-27T23:34:31.170Z,26.60
2019-06-27T23:39:27.098Z,26.70
2019-06-27T23:44:22.936Z,26.90
2019-06-27T23:49:18.707Z,27.00
2019-06-27T23:54:14.571Z,26.90
2019-06-27T23:59:10.302Z,26.70
